createdAt,value
2017-12-25T00:02:02.816Z,5.57
2017-12-25T00:04:30.259Z,6.70
2017-12-25T00:06:57.730Z,8.17
2017-12-25T00:09:25.951Z,4.60
2017-12-25T00:11:53.421Z,6.37
2017-12-25T00:14:20.883Z,4.80
2017-12-25T00:16:48.369Z,4.40
2017-12-25T00:19:16.587Z,4.00
2017-12-25T00:21:44.087Z,5.03
2017-12-25T00:24:11.550Z,4.03
2017-12-25T00:26:40.498Z,6.80
2017-12-25T00:29:07.980Z,4.00
2017-12-25T00:31:35.429Z,5.30
2017-12-25T00:34:02.903Z,5.23
2017-12-25T00:36:31.124Z,3.53
2017-12-25T00:38:58.595Z,7.93
2017-12-25T00:41:26.052Z,3.97
2017-12-25T00:43:53.538Z,4.63
2017-12-25T00:46:21.471Z,3.73
2017-12-25T00:48:48.931Z,4.30
2017-12-25T00:51:16.400Z,4.17
2017-12-25T00:53:43.846Z,4.43
2017-12-25T00:56:11.314Z,5.33
2017-12-25T00:58:38.790Z,5.07
2017-12-25T01:01:06.254Z,5.63
2017-12-25T01:03:33.727Z,6.50
2017-12-25T01:06:01.174Z,6.27
2017-12-25T01:08:28.657Z,5.90
2017-12-25T01:10:56.114Z,5.53
2017-12-25T01:13:23.571Z,5.80
2017-12-25T01:15:51.034Z,6.20
2017-12-25T01:18:18.504Z,5.40
2017-12-25T01:20:45.978Z,6.03
2017-12-25T01:23:13.462Z,6.83
2017-12-25T01:25:40.915Z,9.43
2017-12-25T01:28:08.371Z,8.13
2017-12-25T01:30:36.601Z,6.23
2017-12-25T01:33:04.059Z,7.40
2017-12-25T01:35:31.547Z,6.77
2017-12-25T01:37:59.035Z,6.37
2017-12-25T01:40:26.473Z,7.20
2017-12-25T01:42:54.682Z,5.17
2017-12-25T01:45:22.170Z,6.53
2017-12-25T01:47:49.618Z,7.73
2017-12-25T01:50:17.918Z,5.93
2017-12-25T01:52:45.388Z,6.30
2017-12-25T01:55:12.880Z,5.00
2017-12-25T01:57:42.591Z,5.23
2017-12-25T02:03:11.375Z,6.23
2017-12-25T02:05:55.485Z,5.37
2017-12-25T02:08:25.807Z,6.63
2017-12-25T02:10:53.272Z,6.40
2017-12-25T02:13:20.725Z,5.73
2017-12-25T02:15:48.186Z,6.80
2017-12-25T02:18:15.648Z,5.97
2017-12-25T02:20:43.126Z,4.40
2017-12-25T02:23:10.582Z,3.90
2017-12-25T02:25:38.063Z,5.03
2017-12-25T02:28:07.323Z,8.03
2017-12-25T02:30:34.781Z,5.10
2017-12-25T02:33:02.247Z,5.87
2017-12-25T02:35:29.694Z,5.53
2017-12-25T02:37:57.175Z,8.60
2017-12-25T02:40:25.390Z,4.07
2017-12-25T02:42:52.890Z,4.00
2017-12-25T02:45:20.331Z,6.80
2017-12-25T02:47:47.794Z,4.73
2017-12-25T02:50:15.251Z,3.93
2017-12-25T02:52:42.697Z,4.97
2017-12-25T02:55:10.178Z,4.37
2017-12-25T02:57:37.635Z,6.23
2017-12-25T03:00:05.091Z,8.30
2017-12-25T03:02:32.559Z,5.77
2017-12-25T03:05:00.795Z,5.13
2017-12-25T03:07:28.275Z,4.73
2017-12-25T03:09:55.736Z,5.40
2017-12-25T03:12:23.982Z,7.30
2017-12-25T03:14:51.439Z,5.90
2017-12-25T03:17:18.887Z,4.57
2017-12-25T03:19:46.352Z,5.03
2017-12-25T03:22:13.823Z,5.10
2017-12-25T03:24:41.298Z,6.00
2017-12-25T03:27:09.518Z,6.33
2017-12-25T03:29:37.011Z,8.27
2017-12-25T03:32:04.462Z,6.40
2017-12-25T03:34:31.930Z,6.17
2017-12-25T03:36:59.398Z,6.60
2017-12-25T03:39:27.619Z,5.43
2017-12-25T03:41:55.086Z,7.13
2017-12-25T03:44:22.559Z,4.43
2017-12-25T03:46:50.015Z,4.20
2017-12-25T03:49:17.478Z,4.43
2017-12-25T03:51:46.459Z,8.00
2017-12-25T03:54:13.915Z,5.33
2017-12-25T03:56:41.399Z,3.60
2017-12-25T03:59:09.619Z,5.13
2017-12-25T04:01:37.079Z,5.13
2017-12-25T04:04:04.554Z,5.00
2017-12-25T04:06:32.002Z,5.00
2017-12-25T04:08:59.466Z,3.73
2017-12-25T04:11:26.922Z,8.93
2017-12-25T04:13:54.382Z,3.60
2017-12-25T04:16:21.846Z,3.10
2017-12-25T04:18:49.306Z,2.70
2017-12-25T04:21:16.764Z,3.47
2017-12-25T04:23:44.235Z,3.13
2017-12-25T04:26:11.687Z,4.60
2017-12-25T04:28:39.183Z,2.90
2017-12-25T04:31:06.629Z,2.30
2017-12-25T04:33:34.086Z,2.97
2017-12-25T04:36:01.558Z,2.67
2017-12-25T04:38:29.018Z,4.10
2017-12-25T04:40:56.519Z,3.27
2017-12-25T04:43:24.739Z,2.60
2017-12-25T04:45:52.207Z,3.23
2017-12-25T04:48:19.659Z,2.90
2017-12-25T04:50:47.130Z,2.93
2017-12-25T04:53:14.582Z,1.90
2017-12-25T04:55:42.051Z,2.13
2017-12-25T04:58:09.506Z,1.70
2017-12-25T05:00:36.959Z,2.20
2017-12-25T05:03:04.423Z,2.97
2017-12-25T05:05:32.702Z,2.83
2017-12-25T05:08:00.171Z,3.17
2017-12-25T05:10:28.393Z,3.73
2017-12-25T05:12:55.855Z,5.60
2017-12-25T05:15:23.311Z,4.30
2017-12-25T05:17:50.775Z,5.40
2017-12-25T05:20:18.251Z,5.20
2017-12-25T05:22:45.694Z,7.63
2017-12-25T05:25:13.172Z,6.60
2017-12-25T05:27:40.629Z,6.83
2017-12-25T05:30:08.082Z,8.80
2017-12-25T05:32:35.558Z,5.70
2017-12-25T05:35:03.065Z,11.20
2017-12-25T05:37:30.526Z,6.20
2017-12-25T05:39:57.998Z,6.50
2017-12-25T05:42:25.447Z,8.07
2017-12-25T05:44:52.906Z,6.23
2017-12-25T05:47:20.367Z,7.33
2017-12-25T05:49:47.847Z,6.90
2017-12-25T05:52:15.307Z,8.37
2017-12-25T05:54:44.263Z,7.10
2017-12-25T05:57:11.735Z,7.63
2017-12-25T05:59:39.215Z,7.63
2017-12-25T06:02:08.990Z,5.50
2017-12-25T06:04:36.454Z,5.20
2017-12-25T06:07:03.930Z,6.33
2017-12-25T06:09:31.399Z,5.63
2017-12-25T06:11:58.894Z,5.27
2017-12-25T06:14:26.369Z,5.50
2017-12-25T06:16:53.821Z,6.23
2017-12-25T06:19:21.310Z,5.20
2017-12-25T06:21:48.763Z,5.20
2017-12-25T06:24:16.235Z,5.20
2017-12-25T06:26:43.694Z,4.90
2017-12-25T06:29:11.163Z,6.03
2017-12-25T06:31:39.388Z,4.70
2017-12-25T06:34:06.830Z,4.80
2017-12-25T06:36:34.297Z,5.40
2017-12-25T06:39:01.751Z,4.90
2017-12-25T06:41:29.218Z,4.67
2017-12-25T06:43:56.675Z,4.93
2017-12-25T06:46:24.147Z,4.50
2017-12-25T06:48:51.603Z,4.40
2017-12-25T06:51:19.082Z,4.20
2017-12-25T06:53:47.306Z,4.83
2017-12-25T06:56:14.772Z,5.20
2017-12-25T06:58:42.234Z,4.33
2017-12-25T07:01:09.697Z,5.33
2017-12-25T07:03:37.145Z,4.17
2017-12-25T07:06:04.612Z,4.40
2017-12-25T07:08:32.058Z,4.43
2017-12-25T07:10:59.530Z,3.73
2017-12-25T07:13:26.998Z,3.63
2017-12-25T07:15:55.225Z,5.20
2017-12-25T07:18:22.682Z,5.17
2017-12-25T07:20:50.150Z,4.07
2017-12-25T07:23:17.603Z,4.27
2017-12-25T07:25:45.186Z,5.30
2017-12-25T07:28:12.636Z,7.97
2017-12-25T07:30:40.093Z,5.63
2017-12-25T07:33:07.558Z,5.57
2017-12-25T07:35:35.024Z,5.13
2017-12-25T07:38:02.489Z,6.47
2017-12-25T07:40:29.944Z,5.47
2017-12-25T07:42:57.418Z,5.30
2017-12-25T07:45:25.634Z,5.37
2017-12-25T07:47:53.098Z,4.63
2017-12-25T07:50:20.552Z,6.63
2017-12-25T07:52:48.031Z,6.17
2017-12-25T07:55:15.483Z,5.17
2017-12-25T07:57:42.958Z,5.47
2017-12-25T08:00:10.414Z,5.65
2017-12-25T08:02:37.871Z,6.60
2017-12-25T08:05:06.103Z,7.60
2017-12-25T08:07:33.566Z,5.53
2017-12-25T08:10:01.023Z,5.80
2017-12-25T08:12:28.498Z,5.10
2017-12-25T08:14:55.951Z,5.20
2017-12-25T08:17:23.429Z,5.20
2017-12-25T08:19:51.671Z,9.53
2017-12-25T08:22:19.139Z,7.20
2017-12-25T08:24:46.623Z,6.00
2017-12-25T08:27:14.838Z,4.87
2017-12-25T08:29:43.423Z,6.37
2017-12-25T08:32:10.898Z,4.20
2017-12-25T08:34:38.351Z,5.97
2017-12-25T08:37:05.885Z,5.23
2017-12-25T08:39:33.330Z,5.00
2017-12-25T08:42:00.807Z,3.93
2017-12-25T08:44:28.254Z,4.20
2017-12-25T08:46:55.728Z,5.23
2017-12-25T08:49:23.186Z,4.03
2017-12-25T08:51:50.650Z,3.73
2017-12-25T08:54:18.134Z,3.33
2017-12-25T08:56:45.598Z,3.50
2017-12-25T08:59:13.847Z,4.80
2017-12-25T09:01:42.137Z,3.70
2017-12-25T09:04:09.571Z,5.50
2017-12-25T09:06:37.027Z,4.70
2017-12-25T09:09:04.486Z,4.13
2017-12-25T09:11:31.958Z,5.40
2017-12-25T09:13:59.427Z,5.63
2017-12-25T09:16:27.647Z,4.27
2017-12-25T09:18:55.126Z,4.10
2017-12-25T09:21:22.605Z,3.93
2017-12-25T09:23:50.058Z,4.67
2017-12-25T09:26:17.514Z,6.77
2017-12-25T09:28:45.766Z,5.07
2017-12-25T09:31:13.223Z,3.70
2017-12-25T09:33:40.685Z,3.87
2017-12-25T09:36:08.142Z,3.03
2017-12-25T09:38:35.594Z,3.63
2017-12-25T09:41:03.868Z,2.60
2017-12-25T09:43:31.310Z,8.00
2017-12-25T09:45:58.762Z,2.93
2017-12-25T09:48:26.230Z,3.33
2017-12-25T09:50:53.687Z,2.73
2017-12-25T09:53:21.158Z,3.13
2017-12-25T09:55:48.630Z,2.83
2017-12-25T09:58:16.086Z,4.53
2017-12-25T10:00:43.539Z,2.90
2017-12-25T10:03:11.022Z,3.53
2017-12-25T10:05:38.482Z,2.53
2017-12-25T10:08:05.943Z,2.80
2017-12-25T10:10:33.399Z,3.40
2017-12-25T10:13:00.861Z,2.73
2017-12-25T10:15:28.317Z,3.03
2017-12-25T10:17:55.791Z,4.00
2017-12-25T10:20:23.263Z,2.77
2017-12-25T10:22:50.726Z,3.70
2017-12-25T10:25:19.018Z,3.77
2017-12-25T10:27:47.457Z,3.80
2017-12-25T10:30:14.898Z,4.50
2017-12-25T10:32:42.391Z,3.33
2017-12-25T10:35:09.852Z,3.90
2017-12-25T10:37:37.311Z,3.43
2017-12-25T10:40:04.778Z,3.43
2017-12-25T10:42:32.264Z,2.80
2017-12-25T10:44:59.723Z,3.40
2017-12-25T10:47:27.951Z,3.23
2017-12-25T10:49:55.440Z,3.40
2017-12-25T10:52:22.890Z,3.50
2017-12-25T10:54:50.363Z,2.77
2017-12-25T10:57:18.599Z,3.57
2017-12-25T10:59:46.080Z,14.57
2017-12-25T11:02:13.550Z,3.00
2017-12-25T11:04:41.766Z,4.23
2017-12-25T11:07:09.229Z,2.10
2017-12-25T11:09:36.690Z,2.43
2017-12-25T11:12:04.182Z,2.80
2017-12-25T11:14:31.634Z,1.97
2017-12-25T11:16:59.092Z,2.13
2017-12-25T11:19:26.559Z,1.70
2017-12-25T11:21:54.790Z,1.50
2017-12-25T11:24:22.260Z,1.83
2017-12-25T11:26:49.716Z,2.50
2017-12-25T11:29:17.194Z,1.50
2017-12-25T11:31:44.659Z,1.43
2017-12-25T11:34:12.137Z,1.70
2017-12-25T11:36:39.588Z,5.13
2017-12-25T11:39:07.798Z,1.60
2017-12-25T11:41:35.274Z,1.30
2017-12-25T11:44:02.731Z,1.50
2017-12-25T11:46:30.214Z,2.80
2017-12-25T11:48:58.456Z,1.20
2017-12-25T11:51:25.934Z,1.77
2017-12-25T11:53:53.399Z,2.00
2017-12-25T11:56:22.456Z,1.63
2017-12-25T11:58:49.920Z,1.50
2017-12-25T12:01:17.406Z,1.50
2017-12-25T12:03:45.623Z,1.73
2017-12-25T12:06:13.105Z,1.63
2017-12-25T12:08:40.575Z,2.57
2017-12-25T12:11:08.034Z,1.70
2017-12-25T12:13:35.511Z,1.33
2017-12-25T12:16:03.731Z,1.73
2017-12-25T12:18:31.187Z,2.67
2017-12-25T12:20:58.658Z,2.00
2017-12-25T12:23:26.138Z,1.77
2017-12-25T12:25:55.112Z,1.50
2017-12-25T12:28:22.574Z,1.57
2017-12-25T12:30:50.050Z,1.57
2017-12-25T12:33:17.503Z,2.83
2017-12-25T12:35:45.750Z,2.13
2017-12-25T12:38:13.226Z,2.37
2017-12-25T12:40:40.682Z,2.87
2017-12-25T12:43:08.146Z,1.60
2017-12-25T12:45:35.616Z,1.63
2017-12-25T12:48:03.851Z,2.43
2017-12-25T12:50:31.318Z,1.77
2017-12-25T12:52:58.794Z,1.67
2017-12-25T12:55:26.266Z,2.30
2017-12-25T12:57:54.486Z,2.10
2017-12-25T13:00:21.960Z,3.67
2017-12-25T13:02:50.931Z,1.83
2017-12-25T13:05:18.410Z,2.40
2017-12-25T13:07:45.886Z,1.73
2017-12-25T13:10:13.342Z,2.50
2017-12-25T13:12:41.579Z,2.00
2017-12-25T13:15:09.046Z,2.17
2017-12-25T13:17:36.498Z,2.50
2017-12-25T13:20:03.974Z,4.30
2017-12-25T13:22:31.432Z,2.77
2017-12-25T13:24:58.916Z,2.50
2017-12-25T13:27:27.130Z,2.20
2017-12-25T13:29:54.580Z,2.27
2017-12-25T13:32:22.050Z,2.83
2017-12-25T13:34:49.511Z,3.27
2017-12-25T13:37:16.987Z,2.17
2017-12-25T13:39:44.447Z,2.40
2017-12-25T13:42:11.898Z,2.17
2017-12-25T13:44:40.875Z,1.93
2017-12-25T13:47:08.338Z,2.20
2017-12-25T13:49:35.798Z,3.63
2017-12-25T13:52:03.258Z,3.73
2017-12-25T13:54:31.494Z,2.90
2017-12-25T13:56:58.964Z,1.70
2017-12-25T13:59:26.443Z,1.60
2017-12-25T14:01:53.886Z,2.40
2017-12-25T14:04:21.347Z,1.33
2017-12-25T14:06:48.808Z,3.33
2017-12-25T14:09:16.266Z,1.20
2017-12-25T14:11:43.738Z,1.00
2017-12-25T14:14:11.198Z,1.40
2017-12-25T14:16:38.666Z,3.30
2017-12-25T14:19:06.899Z,1.77
2017-12-25T14:21:34.366Z,1.00
2017-12-25T14:24:01.834Z,1.30
2017-12-25T14:26:30.074Z,1.30
2017-12-25T14:28:57.546Z,1.97
2017-12-25T14:31:25.019Z,1.10
2017-12-25T14:33:52.500Z,1.20
2017-12-25T14:36:20.739Z,2.17
2017-12-25T14:38:48.215Z,3.37
2017-12-25T14:41:19.887Z,1.10
2017-12-25T14:43:48.132Z,1.43
2017-12-25T14:46:15.599Z,2.40
2017-12-25T14:48:43.042Z,1.10
2017-12-25T14:51:10.514Z,1.70
2017-12-25T14:53:37.962Z,1.43
2017-12-25T14:56:05.426Z,1.33
2017-12-25T14:58:33.657Z,1.73
2017-12-25T15:01:01.131Z,1.90
2017-12-25T15:03:28.591Z,1.53
2017-12-25T15:05:56.063Z,1.40
2017-12-25T15:08:24.289Z,1.40
2017-12-25T15:10:51.748Z,1.70
2017-12-25T15:13:19.218Z,1.43
2017-12-25T15:15:46.687Z,1.30
2017-12-25T15:18:14.163Z,1.17
2017-12-25T15:20:42.389Z,1.40
2017-12-25T15:23:09.881Z,1.20
2017-12-25T15:25:37.332Z,1.37
2017-12-25T15:28:04.783Z,1.40
2017-12-25T15:30:32.256Z,4.97
2017-12-25T15:32:59.715Z,1.33
2017-12-25T15:35:27.174Z,1.70
2017-12-25T15:37:54.638Z,1.43
2017-12-25T15:40:22.110Z,1.53
2017-12-25T15:42:50.326Z,2.03
2017-12-25T15:45:17.793Z,1.73
2017-12-25T15:47:45.271Z,1.77
2017-12-25T15:50:13.779Z,1.40
2017-12-25T15:52:42.015Z,1.27
2017-12-25T15:55:09.470Z,2.60
2017-12-25T15:57:36.942Z,1.37
2017-12-25T16:00:04.395Z,1.17
2017-12-25T16:02:31.887Z,1.43
2017-12-25T16:05:00.120Z,1.50
2017-12-25T16:07:27.579Z,1.20
2017-12-25T16:09:55.055Z,1.37
2017-12-25T16:12:22.507Z,2.10
2017-12-25T16:14:49.986Z,2.93
2017-12-25T16:17:17.470Z,4.10
2017-12-25T16:19:44.931Z,1.97
2017-12-25T16:22:12.403Z,1.50
2017-12-25T16:24:39.895Z,1.30
2017-12-25T16:27:08.130Z,2.57
2017-12-25T16:29:35.625Z,1.30
2017-12-25T16:32:03.086Z,1.93
2017-12-25T16:34:31.331Z,2.00
2017-12-25T16:36:58.795Z,1.57
2017-12-25T16:39:26.246Z,6.20
2017-12-25T16:41:53.751Z,1.37
2017-12-25T16:44:21.174Z,1.23
2017-12-25T16:46:48.691Z,1.97
2017-12-25T16:49:16.153Z,1.17
2017-12-25T16:51:43.643Z,2.73
2017-12-25T16:54:11.151Z,1.17
2017-12-25T16:56:38.638Z,2.40
2017-12-25T16:59:06.104Z,1.57
2017-12-25T17:01:35.071Z,1.20
2017-12-25T17:04:02.544Z,1.57
2017-12-25T17:06:30.006Z,1.90
2017-12-25T17:08:57.482Z,3.73
2017-12-25T17:11:24.985Z,1.80
2017-12-25T17:13:52.446Z,1.40
2017-12-25T17:16:21.985Z,2.17
2017-12-25T17:18:49.454Z,1.73
2017-12-25T17:21:16.930Z,2.90
2017-12-25T17:23:45.151Z,2.43
2017-12-25T17:26:12.625Z,1.77
2017-12-25T17:28:40.078Z,2.10
2017-12-25T17:31:07.544Z,2.97
2017-12-25T17:33:36.533Z,1.83
2017-12-25T17:36:04.002Z,1.50
2017-12-25T17:38:31.486Z,1.47
2017-12-25T17:40:59.722Z,1.30
2017-12-25T17:43:27.202Z,1.10
2017-12-25T17:45:55.432Z,1.30
2017-12-25T17:48:22.903Z,1.40
2017-12-25T17:50:50.391Z,1.80
2017-12-25T17:53:18.610Z,1.10
2017-12-25T17:55:46.086Z,1.67
2017-12-25T17:58:13.540Z,1.50
2017-12-25T18:00:41.019Z,1.20
2017-12-25T18:03:08.495Z,4.30
2017-12-25T18:05:36.734Z,1.50
2017-12-25T18:08:04.214Z,1.33
2017-12-25T18:10:32.455Z,1.60
2017-12-25T18:12:59.941Z,1.97
2017-12-25T18:15:27.409Z,4.00
2017-12-25T18:17:55.647Z,1.70
2017-12-25T18:20:23.111Z,2.23
2017-12-25T18:22:50.574Z,3.43
2017-12-25T18:25:18.075Z,3.80
2017-12-25T18:27:46.292Z,2.50
2017-12-25T18:30:13.774Z,1.90
2017-12-25T18:32:42.005Z,2.43
2017-12-25T18:35:09.464Z,2.03
2017-12-25T18:37:36.944Z,1.27
2017-12-25T18:40:04.422Z,2.60
2017-12-25T18:42:31.890Z,2.40
2017-12-25T18:45:00.128Z,1.40
2017-12-25T18:47:27.595Z,1.30
2017-12-25T18:49:55.084Z,1.10
2017-12-25T18:52:22.543Z,1.47
2017-12-25T18:54:50.024Z,3.57
2017-12-25T18:57:17.499Z,1.30
2017-12-25T18:59:44.962Z,2.60
2017-12-25T19:02:12.440Z,1.60
2017-12-25T19:04:39.901Z,2.07
2017-12-25T19:07:07.378Z,1.77
2017-12-25T19:09:35.602Z,1.30
2017-12-25T19:12:03.090Z,1.63
2017-12-25T19:14:30.542Z,1.30
2017-12-25T19:16:58.011Z,2.57
2017-12-25T19:19:26.241Z,2.30
2017-12-25T19:21:54.686Z,3.83
2017-12-25T19:24:22.151Z,2.20
2017-12-25T19:26:49.615Z,2.33
2017-12-25T19:29:17.096Z,2.40
2017-12-25T19:31:44.571Z,2.20
2017-12-25T19:34:12.040Z,2.70
2017-12-25T19:36:39.515Z,1.90
2017-12-25T19:39:07.751Z,2.40
2017-12-25T19:41:35.247Z,1.63
2017-12-25T19:44:03.475Z,1.63
2017-12-25T19:46:30.950Z,2.20
2017-12-25T19:48:58.438Z,2.50
2017-12-25T19:51:26.687Z,2.17
2017-12-25T19:53:54.142Z,1.97
2017-12-25T19:56:22.087Z,1.53
2017-12-25T19:58:49.579Z,1.67
2017-12-25T20:01:17.802Z,1.53
2017-12-25T20:03:45.284Z,1.83
2017-12-25T20:06:12.880Z,1.43
2017-12-25T20:08:40.466Z,2.40
2017-12-25T20:11:08.234Z,2.63
2017-12-25T20:13:35.863Z,1.87
2017-12-25T20:16:03.322Z,1.70
2017-12-25T20:18:31.569Z,2.30
2017-12-25T20:20:59.043Z,2.00
2017-12-25T20:23:27.274Z,1.83
2017-12-25T20:25:54.796Z,3.20
2017-12-25T20:28:22.318Z,2.30
2017-12-25T20:30:50.578Z,1.53
2017-12-25T20:33:18.051Z,1.93
2017-12-25T20:35:46.416Z,1.80
2017-12-25T20:38:13.879Z,2.23
2017-12-25T20:40:41.421Z,1.90
2017-12-25T20:43:08.931Z,3.10
2017-12-25T20:45:36.394Z,1.90
2017-12-25T20:48:03.863Z,7.10
2017-12-25T20:50:31.429Z,2.37
2017-12-25T20:52:58.915Z,2.33
2017-12-25T20:55:26.391Z,3.17
2017-12-25T20:57:53.896Z,3.17
2017-12-25T21:00:21.358Z,1.90
2017-12-25T21:02:48.837Z,4.10
2017-12-25T21:05:16.292Z,3.67
2017-12-25T21:07:43.758Z,2.47
2017-12-25T21:10:11.243Z,1.47
2017-12-25T21:12:39.474Z,2.37
2017-12-25T21:15:06.964Z,3.70
2017-12-25T21:17:34.435Z,3.03
2017-12-25T21:20:02.744Z,2.87
2017-12-25T21:22:30.208Z,2.20
2017-12-25T21:24:57.715Z,2.87
2017-12-25T21:27:25.951Z,1.63
2017-12-25T21:29:53.572Z,1.57
2017-12-25T21:32:21.034Z,2.53
2017-12-25T21:34:48.513Z,2.07
2017-12-25T21:37:16.007Z,2.90
2017-12-25T21:39:43.481Z,1.67
2017-12-25T21:42:11.713Z,4.63
2017-12-25T21:44:39.189Z,4.00
2017-12-25T21:47:06.679Z,2.00
2017-12-25T21:49:35.768Z,2.30
2017-12-25T21:52:03.997Z,1.63
2017-12-25T21:54:31.478Z,2.40
2017-12-25T21:56:58.940Z,2.53
2017-12-25T21:59:26.419Z,2.30
2017-12-25T22:01:54.657Z,2.60
2017-12-25T22:04:22.142Z,8.93
2017-12-25T22:06:50.377Z,2.33
2017-12-25T22:09:17.891Z,1.60
2017-12-25T22:11:45.386Z,1.80
2017-12-25T22:14:12.850Z,3.30
2017-12-25T22:16:40.349Z,4.13
2017-12-25T22:19:08.570Z,2.30
2017-12-25T22:21:36.042Z,3.33
2017-12-25T22:24:03.782Z,2.30
2017-12-25T22:26:31.242Z,1.80
2017-12-25T22:28:58.716Z,2.60
2017-12-25T22:31:26.251Z,2.30
2017-12-25T22:33:53.853Z,4.23
2017-12-25T22:36:21.310Z,3.30
2017-12-25T22:38:48.802Z,3.10
2017-12-25T22:41:16.270Z,2.10
2017-12-25T22:43:43.743Z,3.57
2017-12-25T22:46:11.211Z,2.43
2017-12-25T22:48:38.767Z,6.37
2017-12-25T22:51:06.241Z,2.10
2017-12-25T22:53:33.717Z,4.13
2017-12-25T22:56:02.098Z,2.13
2017-12-25T22:58:30.347Z,6.87
2017-12-25T23:00:57.844Z,5.50
2017-12-25T23:03:25.870Z,4.73
2017-12-25T23:05:53.343Z,3.30
2017-12-25T23:08:20.896Z,4.37
2017-12-25T23:10:48.357Z,4.93
2017-12-25T23:13:15.879Z,4.50
2017-12-25T23:15:43.338Z,2.00
2017-12-25T23:18:10.859Z,4.37
2017-12-25T23:20:38.360Z,2.43
2017-12-25T23:23:05.818Z,1.67
2017-12-25T23:25:33.295Z,2.67
2017-12-25T23:28:00.765Z,2.53
2017-12-25T23:30:29.003Z,3.63
2017-12-25T23:32:56.480Z,3.57
2017-12-25T23:35:23.942Z,5.57
2017-12-25T23:37:51.415Z,3.87
2017-12-25T23:40:19.670Z,4.20
2017-12-25T23:42:47.140Z,5.73
2017-12-25T23:45:14.607Z,3.70
2017-12-25T23:47:42.860Z,7.00
2017-12-25T23:50:10.372Z,7.17
2017-12-25T23:52:37.846Z,6.67
2017-12-25T23:55:05.326Z,6.80
2017-12-25T23:57:32.810Z,6.23
